Weather at Dubai Safari Park Heliport

Public forecast

Using degrees Celsius for public forecast. Weather courtesy of forecast.io.

Closest aviation weather report (METAR) to Dubai Safari Park Heliport

Closest report is Dubai International Airport, 7.0 nm (13.0 km) NW.

2023/10/02 21:00 (retrieved 38 minutes ago)

OMDB 022100Z 14003KT 040V180 CAVOK 32/24 Q1008 NOSIG

Closest aviation forecast (TAF) to Dubai Safari Park Heliport

Closest forecast is Dubai International Airport, 7.0 nm (13.0 km) NW.

2023/10/02 18:00 (retrieved 4 hours ago)

TAF OMDB 021700Z 0218/0400 35010KT CAVOK BECMG 0218/0220 11005KT BECMG 0307/0309 32012KT BECMG 0316/0318 07005KT